Time;durP1;ratioP1;P1;durP2;ratioP2;P2;SDS_P1;SDS_P2;PMS_P1;PMS_P2;Temp;Humidity;BMP_temperature;BMP_pressure;BME280_temperature;BME280_humidity;BME280_pressure;Samples;Min_cycle;Max_cycle;Signal;HPM_P1;HPM_P2
2023/05/18 00:01:29;;;;;;;;;;;15.30;71.30;;;;;;5072144;28;20951;-71
2023/05/18 00:03:55;;;;;;;;;;;15.30;71.30;;;;;;5089177;28;19920;-71
2023/05/18 00:06:24;;;;;;;;;;;15.30;71.30;;;;;;5089053;28;20326;-71
2023/05/18 00:08:49;;;;;;;;;;;15.30;71.20;;;;;;5088905;28;20267;-71
2023/05/18 00:11:16;;;;;;;;;;;15.30;71.20;;;;;;5090240;28;19982;-71
2023/05/18 00:13:41;;;;;;;;;;;15.30;71.20;;;;;;5088907;28;19935;-71
2023/05/18 00:16:07;;;;;;;;;;;15.30;71.20;;;;;;5089970;28;20384;-71
2023/05/18 00:18:33;;;;;;;;;;;15.20;71.20;;;;;;5088795;28;19916;-71
2023/05/18 00:20:58;;;;;;;;;;;15.30;71.30;;;;;;5089944;28;19944;-71
2023/05/18 00:23:25;;;;;;;;;;;15.30;71.20;;;;;;5090326;28;19908;-71
2023/05/18 00:25:51;;;;;;;;;;;15.30;71.20;;;;;;5088690;28;20320;-71
2023/05/18 00:28:16;;;;;;;;;;;15.30;71.70;;;;;;5090026;28;19912;-71
2023/05/18 00:30:42;;;;;;;;;;;15.30;71.20;;;;;;5089777;28;20176;-71
2023/05/18 00:33:07;;;;;;;;;;;15.30;71.20;;;;;;5089649;28;19919;-71
2023/05/18 00:35:33;;;;;;;;;;;15.30;71.20;;;;;;5089618;28;19912;-71
2023/05/18 00:37:58;;;;;;;;;;;15.40;71.20;;;;;;5089700;28;19920;-71
2023/05/18 00:40:25;;;;;;;;;;;15.40;71.20;;;;;;5088298;28;19912;-71
2023/05/18 00:42:50;;;;;;;;;;;15.40;71.20;;;;;;5088211;28;20353;-71
2023/05/18 00:45:17;;;;;;;;;;;15.40;71.20;;;;;;5089508;28;20029;-71
2023/05/18 00:47:43;;;;;;;;;;;15.30;71.20;;;;;;5089531;28;19915;-71
2023/05/18 00:50:09;;;;;;;;;;;15.30;71.20;;;;;;5089446;28;19912;-71
2023/05/18 00:52:35;;;;;;;;;;;15.30;71.20;;;;;;5089344;28;20037;-71
2023/05/18 00:55:01;;;;;;;;;;;15.20;71.20;;;;;;5089354;28;20384;-71
2023/05/18 00:57:27;;;;;;;;;;;15.20;71.20;;;;;;5089395;28;19917;-71
2023/05/18 00:59:54;;;;;;;;;;;15.20;71.20;;;;;;5089780;28;19908;-71
2023/05/18 01:02:20;;;;;;;;;;;15.20;71.20;;;;;;5088022;28;19991;-71
2023/05/18 01:04:45;;;;;;;;;;;15.10;71.10;;;;;;5089362;28;20372;-71
2023/05/18 01:07:11;;;;;;;;;;;15.10;71.10;;;;;;5089100;28;19957;-71
2023/05/18 01:09:37;;;;;;;;;;;15.10;71.10;;;;;;5089152;28;20296;-71
2023/05/18 01:12:24;;;;;;;;;;;15.00;71.20;;;;;;5089216;28;19920;-71
2023/05/18 01:14:58;;;;;;;;;;;15.00;71.70;;;;;;5088995;28;19916;-71
2023/05/18 01:17:41;;;;;;;;;;;14.90;71.20;;;;;;5089127;28;19912;-71
2023/05/18 01:20:19;;;;;;;;;;;14.90;71.20;;;;;;5088755;28;19912;-71
2023/05/18 01:23:03;;;;;;;;;;;14.90;71.20;;;;;;5088950;28;19908;-71
2023/05/18 01:25:30;;;;;;;;;;;14.90;71.20;;;;;;5088944;28;19991;-71
2023/05/18 01:27:59;;;;;;;;;;;14.90;71.20;;;;;;5088768;28;19917;-71
2023/05/18 01:30:25;;;;;;;;;;;14.80;71.20;;;;;;5088768;28;19993;-71
2023/05/18 01:32:50;;;;;;;;;;;14.80;71.20;;;;;;5088559;28;19927;-71
2023/05/18 01:35:16;;;;;;;;;;;14.80;71.20;;;;;;5087356;28;19917;-71
2023/05/18 01:37:41;;;;;;;;;;;14.80;71.20;;;;;;5088583;28;19919;-71
2023/05/18 01:40:08;;;;;;;;;;;14.70;71.10;;;;;;5087514;28;19926;-71
2023/05/18 01:42:36;;;;;;;;;;;14.70;71.10;;;;;;5087236;28;19908;-71
2023/05/18 01:45:06;;;;;;;;;;;14.70;71.10;;;;;;5087158;28;20360;-71
2023/05/18 01:47:32;;;;;;;;;;;14.70;71.10;;;;;;5088384;28;19930;-71
2023/05/18 01:50:13;;;;;;;;;;;14.60;71.10;;;;;;5088370;28;20368;-71
2023/05/18 01:52:45;;;;;;;;;;;14.50;71.00;;;;;;5088484;28;20515;-71
2023/05/18 01:55:11;;;;;;;;;;;14.50;71.00;;;;;;5088209;28;20410;-73
2023/05/18 01:57:40;;;;;;;;;;;14.40;71.00;;;;;;5088331;28;19912;-73
2023/05/18 02:00:08;;;;;;;;;;;14.30;71.00;;;;;;5088635;28;19961;-73
2023/05/18 02:02:34;;;;;;;;;;;14.30;71.00;;;;;;5088185;28;19920;-73
2023/05/18 02:05:00;;;;;;;;;;;14.20;71.00;;;;;;5087064;28;19995;-73
2023/05/18 02:07:25;;;;;;;;;;;14.20;71.10;;;;;;5088174;28;19912;-73
2023/05/18 02:09:51;;;;;;;;;;;14.10;71.00;;;;;;5088015;28;20032;-73
2023/05/18 02:12:16;;;;;;;;;;;14.10;71.10;;;;;;5087513;28;20375;-73
2023/05/18 02:14:42;;;;;;;;;;;14.10;71.10;;;;;;5086829;28;19951;-73
2023/05/18 02:17:08;;;;;;;;;;;14.00;71.10;;;;;;5087928;28;19920;-73
2023/05/18 02:19:36;;;;;;;;;;;14.00;71.10;;;;;;5087891;28;19947;-73
2023/05/18 02:22:04;;;;;;;;;;;14.00;71.10;;;;;;5087936;28;19998;-73
2023/05/18 02:24:30;;;;;;;;;;;14.00;71.10;;;;;;5088208;28;19908;-73
2023/05/18 02:26:56;;;;;;;;;;;14.00;71.10;;;;;;5087824;28;19927;-73
2023/05/18 02:29:21;;;;;;;;;;;14.00;71.10;;;;;;5087763;28;19919;-73
2023/05/18 02:31:47;;;;;;;;;;;14.00;71.10;;;;;;5087832;28;19931;-73
2023/05/18 02:34:14;;;;;;;;;;;14.00;71.10;;;;;;5087719;28;20350;-72
2023/05/18 02:36:41;;;;;;;;;;;14.00;71.00;;;;;;5087738;28;19943;-73
2023/05/18 02:39:07;;;;;;;;;;;14.00;71.00;;;;;;5087992;28;19970;-73
2023/05/18 02:41:33;;;;;;;;;;;13.90;71.00;;;;;;5087797;28;19909;-73
2023/05/18 02:44:00;;;;;;;;;;;13.90;71.10;;;;;;5087699;28;20003;-73
2023/05/18 02:46:25;;;;;;;;;;;13.90;71.10;;;;;;5088105;28;20375;-73
2023/05/18 02:48:51;;;;;;;;;;;13.90;71.10;;;;;;5087569;28;19939;-73
2023/05/18 02:51:16;;;;;;;;;;;13.90;71.20;;;;;;5088067;28;20003;-73
2023/05/18 02:53:44;;;;;;;;;;;13.90;71.20;;;;;;5087567;28;20391;-73
2023/05/18 02:56:11;;;;;;;;;;;13.90;71.10;;;;;;5087575;28;19954;-73
2023/05/18 02:58:37;;;;;;;;;;;13.90;71.00;;;;;;5087380;28;19966;-72
2023/05/18 03:01:06;;;;;;;;;;;13.90;71.10;;;;;;5087495;28;19916;-73
2023/05/18 03:03:33;;;;;;;;;;;13.90;71.10;;;;;;5087359;28;20324;-73
2023/05/18 03:05:59;;;;;;;;;;;13.90;71.10;;;;;;5087573;28;20321;-73
2023/05/18 03:08:25;;;;;;;;;;;13.90;71.10;;;;;;5087462;28;19913;-73
2023/05/18 03:10:51;;;;;;;;;;;13.80;71.00;;;;;;5087429;28;19908;-73
2023/05/18 03:13:16;;;;;;;;;;;13.80;71.00;;;;;;5087289;28;19924;-73
2023/05/18 03:15:44;;;;;;;;;;;13.80;71.00;;;;;;5087351;28;19916;-73
2023/05/18 03:18:10;;;;;;;;;;;13.80;71.00;;;;;;5087350;28;19945;-73
2023/05/18 03:20:36;;;;;;;;;;;13.80;71.00;;;;;;5087314;28;19912;-73
2023/05/18 03:23:02;;;;;;;;;;;13.80;71.00;;;;;;5087331;28;19952;-73
2023/05/18 03:25:29;;;;;;;;;;;13.70;71.00;;;;;;5089844;28;19943;-73
2023/05/18 03:27:54;;;;;;;;;;;13.70;71.10;;;;;;5091049;28;19912;-72
2023/05/18 03:30:20;;;;;;;;;;;13.70;71.10;;;;;;5091046;28;20352;-73
2023/05/18 03:32:46;;;;;;;;;;;13.70;71.00;;;;;;5090805;28;20391;-73
2023/05/18 03:35:12;;;;;;;;;;;13.70;71.00;;;;;;5090903;28;20488;-73
2023/05/18 03:37:37;;;;;;;;;;;13.70;71.10;;;;;;5090900;28;19908;-73
2023/05/18 03:40:10;;;;;;;;;;;13.70;71.30;;;;;;5089402;28;20360;-73
2023/05/18 03:42:36;;;;;;;;;;;13.70;71.10;;;;;;5090682;28;20413;-73
2023/05/18 03:45:02;;;;;;;;;;;13.60;71.00;;;;;;5090702;28;19943;-73
2023/05/18 03:47:28;;;;;;;;;;;13.60;71.00;;;;;;5090598;28;19956;-73
2023/05/18 03:49:54;;;;;;;;;;;13.60;71.00;;;;;;5089389;28;19912;-73
2023/05/18 03:52:21;;;;;;;;;;;13.50;71.00;;;;;;5090361;28;19923;-73
2023/05/18 03:54:48;;;;;;;;;;;13.50;71.00;;;;;;5089083;28;19916;-73
2023/05/18 03:57:13;;;;;;;;;;;13.50;71.10;;;;;;5090392;28;19919;-73
2023/05/18 03:59:39;;;;;;;;;;;13.50;71.10;;;;;;5090288;28;19999;-73
2023/05/18 04:02:05;;;;;;;;;;;13.50;71.10;;;;;;5090145;28;19931;-73
2023/05/18 04:04:30;;;;;;;;;;;13.40;71.00;;;;;;5090226;28;20253;-73
2023/05/18 04:06:56;;;;;;;;;;;13.40;71.00;;;;;;5089899;28;20014;-72
2023/05/18 04:09:22;;;;;;;;;;;13.40;71.00;;;;;;5090143;28;20006;-72
2023/05/18 04:11:48;;;;;;;;;;;13.40;71.10;;;;;;5090002;28;19916;-72
2023/05/18 04:14:15;;;;;;;;;;;13.40;71.10;;;;;;5090051;28;19935;-72
2023/05/18 04:16:41;;;;;;;;;;;13.40;71.00;;;;;;5089992;28;20411;-72
2023/05/18 04:19:07;;;;;;;;;;;13.40;71.10;;;;;;5090026;28;19912;-73
2023/05/18 04:21:36;;;;;;;;;;;13.40;71.60;;;;;;5089969;28;19979;-73
2023/05/18 04:24:04;;;;;;;;;;;13.40;71.00;;;;;;5089921;28;19912;-73
2023/05/18 04:26:35;;;;;;;;;;;13.30;71.00;;;;;;5072311;28;20275;-73
2023/05/18 04:29:06;;;;;;;;;;;13.30;71.10;;;;;;5089747;28;19912;-73
2023/05/18 04:31:33;;;;;;;;;;;13.30;71.10;;;;;;5089841;28;19923;-73
2023/05/18 04:33:59;;;;;;;;;;;13.30;71.10;;;;;;5089847;28;20338;-73
2023/05/18 04:36:29;;;;;;;;;;;13.30;71.10;;;;;;5089467;28;19908;-73
2023/05/18 04:38:57;;;;;;;;;;;13.30;71.10;;;;;;5089450;28;19912;-73
2023/05/18 04:41:23;;;;;;;;;;;13.30;71.00;;;;;;5089533;28;19912;-73
2023/05/18 04:43:49;;;;;;;;;;;13.30;71.00;;;;;;5089636;28;19908;-73
2023/05/18 04:46:15;;;;;;;;;;;13.40;71.10;;;;;;5089458;28;19908;-73
2023/05/18 04:48:41;;;;;;;;;;;13.40;71.10;;;;;;5088011;28;19919;-73
2023/05/18 04:51:07;;;;;;;;;;;13.40;71.00;;;;;;5089184;28;19916;-72
2023/05/18 04:53:33;;;;;;;;;;;13.30;71.00;;;;;;5088979;28;19916;-72
2023/05/18 04:56:01;;;;;;;;;;;13.30;71.00;;;;;;5088866;28;20000;-73
2023/05/18 04:58:27;;;;;;;;;;;13.30;71.00;;;;;;5088793;28;19908;-73
2023/05/18 05:00:53;;;;;;;;;;;13.30;71.10;;;;;;5088748;28;19919;-73
2023/05/18 05:03:18;;;;;;;;;;;13.40;71.20;;;;;;5088845;28;19924;-73
2023/05/18 05:05:44;;;;;;;;;;;13.40;71.20;;;;;;5087482;28;19912;-72
2023/05/18 05:08:10;;;;;;;;;;;13.40;71.20;;;;;;5088797;28;20306;-73
2023/05/18 05:10:36;;;;;;;;;;;13.50;71.20;;;;;;5087387;28;19927;-73
2023/05/18 05:13:02;;;;;;;;;;;13.50;71.20;;;;;;5088774;28;19927;-73
2023/05/18 05:15:27;;;;;;;;;;;13.50;71.20;;;;;;5087354;28;19916;-72
2023/05/18 05:17:53;;;;;;;;;;;13.50;71.20;;;;;;5088384;28;20290;-72
2023/05/18 05:20:19;;;;;;;;;;;13.60;71.20;;;;;;5088488;28;19966;-72
2023/05/18 05:22:44;;;;;;;;;;;13.60;71.20;;;;;;5088420;28;19908;-72
2023/05/18 05:25:10;;;;;;;;;;;13.60;71.20;;;;;;5088504;28;20000;-72
2023/05/18 05:27:36;;;;;;;;;;;13.70;71.20;;;;;;5088559;28;20528;-72
2023/05/18 05:30:02;;;;;;;;;;;13.70;71.20;;;;;;5088145;28;19954;-72
2023/05/18 05:32:27;;;;;;;;;;;13.70;71.20;;;;;;5086740;28;19916;-72
2023/05/18 05:34:53;;;;;;;;;;;13.80;71.20;;;;;;5087117;28;19919;-73
2023/05/18 05:37:18;;;;;;;;;;;13.80;71.20;;;;;;5088152;28;19986;-72
2023/05/18 05:39:44;;;;;;;;;;;13.90;71.20;;;;;;5086802;28;19916;-73
2023/05/18 05:42:10;;;;;;;;;;;13.90;71.20;;;;;;5088206;28;19908;-73
2023/05/18 05:44:35;;;;;;;;;;;13.90;71.20;;;;;;5088269;28;19949;-72
2023/05/18 05:47:02;;;;;;;;;;;14.00;71.30;;;;;;5087550;28;20383;-73
2023/05/18 05:49:27;;;;;;;;;;;14.00;71.20;;;;;;5087946;28;20369;-72
2023/05/18 05:51:53;;;;;;;;;;;14.10;71.20;;;;;;5087979;28;19918;-73
2023/05/18 05:54:18;;;;;;;;;;;14.10;71.20;;;;;;5087802;28;19920;-73
2023/05/18 05:56:44;;;;;;;;;;;14.10;71.20;;;;;;5069840;28;19919;-73
2023/05/18 05:59:10;;;;;;;;;;;14.20;71.20;;;;;;5087595;28;20000;-73
2023/05/18 06:01:35;;;;;;;;;;;14.30;71.20;;;;;;5086290;28;19928;-72
2023/05/18 06:04:05;;;;;;;;;;;14.30;71.20;;;;;;5087939;28;19919;-72
2023/05/18 06:06:31;;;;;;;;;;;14.30;71.20;;;;;;5088135;28;19912;-72
2023/05/18 06:08:56;;;;;;;;;;;14.30;71.30;;;;;;5087341;28;20368;-73
2023/05/18 06:11:22;;;;;;;;;;;14.40;71.30;;;;;;5087713;28;19959;-72
2023/05/18 06:13:48;;;;;;;;;;;14.40;71.30;;;;;;5087763;28;19920;-71
2023/05/18 06:16:13;;;;;;;;;;;14.40;71.20;;;;;;5087694;28;19908;-72
2023/05/18 06:18:39;;;;;;;;;;;14.40;71.20;;;;;;5087773;28;19919;-72
2023/05/18 06:21:05;;;;;;;;;;;14.40;71.30;;;;;;5087454;28;19951;-72
2023/05/18 06:23:30;;;;;;;;;;;14.40;71.30;;;;;;5087661;28;19912;-72
2023/05/18 06:25:56;;;;;;;;;;;14.40;71.40;;;;;;5087573;28;19912;-72
2023/05/18 06:28:21;;;;;;;;;;;14.40;71.40;;;;;;5087686;28;19912;-72
2023/05/18 06:30:47;;;;;;;;;;;14.50;71.40;;;;;;5087070;28;19923;-72
2023/05/18 06:33:13;;;;;;;;;;;14.60;71.40;;;;;;5087296;28;19922;-72
2023/05/18 06:35:38;;;;;;;;;;;14.60;71.40;;;;;;5087122;28;20006;-72
2023/05/18 06:38:04;;;;;;;;;;;14.70;71.40;;;;;;5087278;28;20447;-72
2023/05/18 06:40:30;;;;;;;;;;;14.70;71.30;;;;;;5085530;28;19916;-72
2023/05/18 06:42:55;;;;;;;;;;;14.70;71.30;;;;;;5087398;28;19935;-73
2023/05/18 06:45:21;;;;;;;;;;;14.80;71.40;;;;;;5087927;28;19912;-74
2023/05/18 06:47:47;;;;;;;;;;;14.80;71.40;;;;;;5086145;28;19972;-72
2023/05/18 06:50:12;;;;;;;;;;;14.90;71.40;;;;;;5087306;28;19973;-72
2023/05/18 06:52:38;;;;;;;;;;;14.90;71.30;;;;;;5087269;28;19917;-72
2023/05/18 06:55:04;;;;;;;;;;;15.00;71.90;;;;;;5085921;28;19912;-72
2023/05/18 06:57:30;;;;;;;;;;;15.10;71.40;;;;;;5087189;28;20386;-72
2023/05/18 06:59:56;;;;;;;;;;;15.20;71.40;;;;;;5090710;28;19926;-72
2023/05/18 07:02:22;;;;;;;;;;;15.30;71.40;;;;;;5090725;28;19924;-72
2023/05/18 07:04:48;;;;;;;;;;;15.40;71.50;;;;;;5090767;28;19969;-77
2023/05/18 07:07:14;;;;;;;;;;;15.50;71.50;;;;;;5090896;28;19912;-77
2023/05/18 07:09:44;;;;;;;;;;;16.10;72.20;;;;;;5090781;28;20375;-77
2023/05/18 07:12:10;;;;;;;;;;;17.30;72.20;;;;;;5090379;28;19999;-77
2023/05/18 07:14:36;;;;;;;;;;;18.70;71.60;;;;;;5090567;28;19947;-77
2023/05/18 07:17:02;;;;;;;;;;;20.10;70.90;;;;;;5090371;28;19908;-77
2023/05/18 07:19:28;;;;;;;;;;;21.10;69.80;;;;;;5090305;28;20006;-77
2023/05/18 07:21:55;;;;;;;;;;;21.30;68.70;;;;;;5090684;28;20347;-77
2023/05/18 07:24:21;;;;;;;;;;;20.80;68.60;;;;;;5090586;28;20427;-77
2023/05/18 07:26:46;;;;;;;;;;;20.40;69.10;;;;;;5088978;28;19912;-78
2023/05/18 07:29:12;;;;;;;;;;;20.10;69.60;;;;;;5090476;28;19976;-78
2023/05/18 07:31:39;;;;;;;;;;;19.70;69.60;;;;;;5090561;28;19937;-78
2023/05/18 07:34:06;;;;;;;;;;;19.20;70.00;;;;;;5090257;28;19925;-77
2023/05/18 07:36:31;;;;;;;;;;;18.90;70.40;;;;;;5090068;28;19912;-77
2023/05/18 07:38:58;;;;;;;;;;;18.60;70.70;;;;;;5090014;28;20000;-78
2023/05/18 07:41:23;;;;;;;;;;;18.50;71.10;;;;;;5090120;28;20344;-78
2023/05/18 07:43:49;;;;;;;;;;;18.50;71.20;;;;;;5089830;28;19912;-78
2023/05/18 07:46:15;;;;;;;;;;;18.60;71.50;;;;;;5089785;28;20007;-77
2023/05/18 07:48:41;;;;;;;;;;;19.10;71.80;;;;;;5089664;28;20003;-78
2023/05/18 07:51:06;;;;;;;;;;;19.30;71.30;;;;;;5089427;28;19916;-78
2023/05/18 07:53:33;;;;;;;;;;;19.40;71.00;;;;;;5089336;28;19927;-78
2023/05/18 07:55:59;;;;;;;;;;;19.30;70.90;;;;;;5089381;28;19912;-76
2023/05/18 07:58:24;;;;;;;;;;;19.20;70.90;;;;;;5087383;28;19925;-77
2023/05/18 08:00:50;;;;;;;;;;;19.10;71.10;;;;;;5088756;28;20007;-77
2023/05/18 08:03:16;;;;;;;;;;;19.00;71.20;;;;;;5088730;28;20018;-78
2023/05/18 08:05:42;;;;;;;;;;;19.00;71.40;;;;;;5088628;28;20319;-77
2023/05/18 08:08:10;;;;;;;;;;;18.90;71.40;;;;;;5087443;28;19927;-77
2023/05/18 08:10:36;;;;;;;;;;;18.90;71.60;;;;;;5085264;28;19939;-78
2023/05/18 08:13:02;;;;;;;;;;;19.10;71.90;;;;;;5089357;28;20014;-77
2023/05/18 08:15:27;;;;;;;;;;;19.60;72.30;;;;;;5088861;28;19945;-74
2023/05/18 08:17:53;;;;;;;;;;;20.40;72.40;;;;;;5088894;28;19922;-73
2023/05/18 08:20:19;;;;;;;;;;;21.50;72.20;;;;;;5087131;28;19922;-73
2023/05/18 08:22:45;;;;;;;;;;;22.60;72.30;;;;;;5087025;28;19917;-73
2023/05/18 08:25:10;;;;;;;;;;;24.10;72.70;;;;;;5088801;28;20292;-73
2023/05/18 08:27:36;;;;;;;;;;;25.60;72.50;;;;;;5088496;28;19920;-73
2023/05/18 08:30:01;;;;;;;;;;;26.30;71.60;;;;;;5087672;28;19916;-73
2023/05/18 08:32:27;;;;;;;;;;;27.00;71.50;;;;;;5088371;28;20074;-73
2023/05/18 08:34:53;;;;;;;;;;;27.00;70.80;;;;;;5088076;28;19919;-74
2023/05/18 08:37:19;;;;;;;;;;;27.10;71.40;;;;;;5086982;28;19913;-72
2023/05/18 08:39:45;;;;;;;;;;;27.20;71.70;;;;;;5088482;28;19912;-70
2023/05/18 08:42:10;;;;;;;;;;;27.60;72.10;;;;;;5088309;28;19995;-71
2023/05/18 08:44:39;;;;;;;;;;;28.30;72.40;;;;;;5086845;28;20011;-72
2023/05/18 08:47:09;;;;;;;;;;;29.00;72.70;;;;;;5086571;28;19909;-74
2023/05/18 08:49:35;;;;;;;;;;;29.50;72.40;;;;;;5087415;28;19916;-74
2023/05/18 08:52:02;;;;;;;;;;;30.00;72.60;;;;;;5088264;28;19921;-72
2023/05/18 08:54:29;;;;;;;;;;;30.50;73.30;;;;;;5087733;28;19958;-72
2023/05/18 08:56:55;;;;;;;;;;;30.70;72.60;;;;;;5088001;28;19915;-72
2023/05/18 08:59:25;;;;;;;;;;;31.10;72.90;;;;;;5087942;28;20003;-71
2023/05/18 09:01:51;;;;;;;;;;;31.20;73.10;;;;;;5086317;28;19972;-75
2023/05/18 09:04:17;;;;;;;;;;;31.10;72.30;;;;;;5087715;28;20013;-76
2023/05/18 09:06:43;;;;;;;;;;;30.90;72.60;;;;;;5087463;28;19919;-75
2023/05/18 09:09:09;;;;;;;;;;;30.60;72.50;;;;;;5087476;28;20003;-76
2023/05/18 09:11:36;;;;;;;;;;;29.60;71.40;;;;;;5087613;28;19948;-76
2023/05/18 09:14:02;;;;;;;;;;;28.30;71.30;;;;;;5087411;28;19916;-77
2023/05/18 09:16:28;;;;;;;;;;;27.00;71.50;;;;;;5088237;28;20376;-77
2023/05/18 09:18:53;;;;;;;;;;;25.90;72.10;;;;;;5089156;28;19963;-77
2023/05/18 09:21:19;;;;;;;;;;;25.50;74.30;;;;;;5089271;28;19999;-78
2023/05/18 09:23:46;;;;;;;;;;;26.30;76.00;;;;;;5089808;28;19912;-78
2023/05/18 09:26:12;;;;;;;;;;;27.60;76.00;;;;;;5090797;28;19915;-78
2023/05/18 09:28:39;;;;;;;;;;;28.70;74.90;;;;;;5090175;28;19935;-78
2023/05/18 09:31:07;;;;;;;;;;;29.40;74.30;;;;;;5090075;28;19933;-79
2023/05/18 09:33:37;;;;;;;;;;;29.90;73.70;;;;;;5089444;28;19938;-74
2023/05/18 09:36:06;;;;;;;;;;;30.20;73.40;;;;;;5087952;28;19957;-74
2023/05/18 09:38:42;;;;;;;;;;;30.40;73.30;;;;;;5087978;28;20260;-74
2023/05/18 09:41:26;;;;;;;;;;;30.60;73.20;;;;;;5088026;28;20384;-74
2023/05/18 09:43:53;;;;;;;;;;;30.80;73.50;;;;;;5087208;28;19920;-75
2023/05/18 09:46:19;;;;;;;;;;;31.40;74.10;;;;;;5087968;28;19915;-74
2023/05/18 09:48:46;;;;;;;;;;;31.20;73.10;;;;;;5088048;28;20245;-75
2023/05/18 09:51:16;;;;;;;;;;;31.20;73.70;;;;;;5086592;28;20331;-75
2023/05/18 09:53:46;;;;;;;;;;;31.30;73.30;;;;;;5088260;28;19916;-76
2023/05/18 09:56:13;;;;;;;;;;;31.50;73.70;;;;;;5088507;28;20019;-73
2023/05/18 09:58:39;;;;;;;;;;;31.90;73.60;;;;;;5088165;28;19915;-73
2023/05/18 10:01:05;;;;;;;;;;;31.40;72.10;;;;;;5087015;28;20319;-73
2023/05/18 10:03:33;;;;;;;;;;;30.80;72.70;;;;;;5088000;28;19930;-73
2023/05/18 10:06:06;;;;;;;;;;;30.40;72.70;;;;;;5089046;28;19908;-74
2023/05/18 10:08:32;;;;;;;;;;;29.40;71.60;;;;;;5088640;28;19912;-72
2023/05/18 10:10:58;;;;;;;;;;;28.20;71.60;;;;;;5088835;28;19934;-73
2023/05/18 10:13:25;;;;;;;;;;;27.50;72.80;;;;;;5087720;28;19920;-73
2023/05/18 10:15:52;;;;;;;;;;;27.80;74.20;;;;;;5088028;28;19912;-73
2023/05/18 10:18:22;;;;;;;;;;;28.30;74.10;;;;;;5088156;28;19908;-72
2023/05/18 10:20:49;;;;;;;;;;;28.30;73.10;;;;;;5087988;28;19919;-73
2023/05/18 10:23:16;;;;;;;;;;;28.00;72.80;;;;;;5087803;28;19915;-73
2023/05/18 10:25:43;;;;;;;;;;;27.50;72.60;;;;;;5087924;28;19909;-73
2023/05/18 10:28:10;;;;;;;;;;;27.00;72.40;;;;;;5087725;28;19908;-72
2023/05/18 10:30:36;;;;;;;;;;;26.30;72.30;;;;;;5087911;28;19943;-71
2023/05/18 10:33:03;;;;;;;;;;;25.80;72.50;;;;;;5088296;28;19955;-73
2023/05/18 10:35:29;;;;;;;;;;;25.40;72.70;;;;;;5091972;28;20002;-72
2023/05/18 10:37:56;;;;;;;;;;;25.00;72.70;;;;;;5091908;28;19908;-70
2023/05/18 10:40:22;;;;;;;;;;;24.60;72.70;;;;;;5092140;28;19949;-71
2023/05/18 10:42:49;;;;;;;;;;;24.40;73.10;;;;;;5092384;28;19912;-73
2023/05/18 10:45:15;;;;;;;;;;;24.20;73.30;;;;;;5091951;28;20295;-72
2023/05/18 10:47:42;;;;;;;;;;;24.20;73.70;;;;;;5090189;28;19915;-74
2023/05/18 10:50:08;;;;;;;;;;;24.20;73.20;;;;;;5092312;28;19934;-79
2023/05/18 10:52:35;;;;;;;;;;;24.30;73.10;;;;;;5092751;28;19948;-78
2023/05/18 10:55:01;;;;;;;;;;;24.50;73.30;;;;;;5092168;28;19950;-77
2023/05/18 10:57:33;;;;;;;;;;;24.80;73.50;;;;;;5092008;28;20376;-77
2023/05/18 10:59:59;;;;;;;;;;;25.00;72.80;;;;;;5091602;28;20264;-78
2023/05/18 11:02:25;;;;;;;;;;;25.00;72.50;;;;;;5092084;28;19976;-78
2023/05/18 11:04:51;;;;;;;;;;;25.00;72.30;;;;;;5093616;28;20044;-79
2023/05/18 11:07:19;;;;;;;;;;;25.10;72.40;;;;;;5091301;28;20287;-79
2023/05/18 11:09:47;;;;;;;;;;;25.50;72.90;;;;;;5091261;28;19916;-78
2023/05/18 11:12:13;;;;;;;;;;;26.20;73.60;;;;;;5078146;28;19959;-78
2023/05/18 11:14:49;;;;;;;;;;;26.80;72.70;;;;;;5089708;28;20029;-78
2023/05/18 11:17:24;;;;;;;;;;;27.30;73.30;;;;;;5088786;28;20425;-76
2023/05/18 11:20:08;;;;;;;;;;;28.00;73.00;;;;;;5091001;28;19927;-76
2023/05/18 11:22:41;;;;;;;;;;;28.30;72.90;;;;;;5091395;28;19970;-79
2023/05/18 11:25:07;;;;;;;;;;;28.90;73.30;;;;;;5089446;28;19995;-78
2023/05/18 11:27:33;;;;;;;;;;;29.10;72.70;;;;;;5091990;28;19908;-79
2023/05/18 11:29:59;;;;;;;;;;;28.90;72.50;;;;;;5090475;28;20113;-78
2023/05/18 11:32:30;;;;;;;;;;;28.70;72.70;;;;;;5091947;28;19944;-78
2023/05/18 11:34:57;;;;;;;;;;;28.30;72.30;;;;;;5090557;28;19916;-78
2023/05/18 11:37:38;;;;;;;;;;;27.90;72.40;;;;;;5092016;28;19912;-78
2023/05/18 11:40:10;;;;;;;;;;;27.50;72.20;;;;;;5091480;28;19908;-78
2023/05/18 11:42:36;;;;;;;;;;;27.00;72.30;;;;;;5092269;28;19913;-78
2023/05/18 11:45:08;;;;;;;;;;;27.00;72.70;;;;;;5089608;28;19912;-79
2023/05/18 11:47:39;;;;;;;;;;;27.30;73.70;;;;;;5091358;28;19912;-80
2023/05/18 11:50:09;;;;;;;;;;;28.00;74.10;;;;;;5090456;28;20058;-69
2023/05/18 11:52:45;;;;;;;;;;;28.10;73.20;;;;;;5091160;28;19945;-79
2023/05/18 11:55:12;;;;;;;;;;;27.90;72.30;;;;;;5091203;28;20363;-78
2023/05/18 11:57:41;;;;;;;;;;;27.60;72.00;;;;;;5090537;28;19931;-75
2023/05/18 12:00:09;;;;;;;;;;;27.80;73.10;;;;;;5090539;28;20010;-77
2023/05/18 12:02:35;;;;;;;;;;;27.80;72.50;;;;;;5090831;28;19941;-77
2023/05/18 12:05:01;;;;;;;;;;;27.60;72.30;;;;;;5091056;28;20372;-76
2023/05/18 12:07:29;;;;;;;;;;;27.50;72.40;;;;;;5091550;28;19908;-75
2023/05/18 12:09:57;;;;;;;;;;;27.40;72.50;;;;;;5090882;28;19951;-75
2023/05/18 12:12:23;;;;;;;;;;;27.20;72.60;;;;;;5089349;28;19908;-73
2023/05/18 12:14:54;;;;;;;;;;;27.00;72.30;;;;;;5090301;28;20062;-75
2023/05/18 12:17:20;;;;;;;;;;;26.80;72.30;;;;;;5090210;28;19976;-74
2023/05/18 12:19:47;;;;;;;;;;;26.70;72.80;;;;;;5090024;28;20498;-74
2023/05/18 12:22:13;;;;;;;;;;;27.00;73.60;;;;;;5071892;28;20279;-74
2023/05/18 12:24:39;;;;;;;;;;;27.40;73.60;;;;;;5090222;28;19991;-75
2023/05/18 12:27:06;;;;;;;;;;;27.50;73.00;;;;;;5089876;28;19920;-74
2023/05/18 12:29:32;;;;;;;;;;;27.40;72.60;;;;;;5089133;28;19912;-75
2023/05/18 12:31:58;;;;;;;;;;;27.20;72.30;;;;;;5090035;28;19966;-75
2023/05/18 12:34:27;;;;;;;;;;;27.10;72.80;;;;;;5089826;28;19916;-75
2023/05/18 12:36:53;;;;;;;;;;;27.30;73.30;;;;;;5090284;28;19926;-76
2023/05/18 12:39:19;;;;;;;;;;;28.00;74.00;;;;;;5090065;28;19908;-76
2023/05/18 12:41:45;;;;;;;;;;;28.60;74.20;;;;;;5090005;28;19923;-76
2023/05/18 12:44:10;;;;;;;;;;;29.10;73.80;;;;;;5090378;28;19935;-75
2023/05/18 12:46:36;;;;;;;;;;;29.00;72.60;;;;;;5090435;28;20280;-75
2023/05/18 12:49:03;;;;;;;;;;;28.50;71.80;;;;;;5090107;28;19920;-75
2023/05/18 12:51:32;;;;;;;;;;;27.80;71.70;;;;;;5090141;28;19908;-75
2023/05/18 12:53:58;;;;;;;;;;;27.40;72.30;;;;;;5090249;28;20002;-76
2023/05/18 12:56:24;;;;;;;;;;;27.20;72.50;;;;;;5090084;28;20065;-76
2023/05/18 12:58:59;;;;;;;;;;;27.00;72.40;;;;;;5089935;28;19915;-74
2023/05/18 13:01:26;;;;;;;;;;;26.80;72.50;;;;;;5088281;28;19919;-75
2023/05/18 13:03:56;;;;;;;;;;;26.70;72.60;;;;;;5090043;28;19908;-74
2023/05/18 13:06:21;;;;;;;;;;;26.70;72.70;;;;;;5089644;28;19908;-76
2023/05/18 13:08:47;;;;;;;;;;;26.80;73.10;;;;;;5089195;28;19977;-76
2023/05/18 13:11:15;;;;;;;;;;;27.00;72.90;;;;;;5090277;28;19999;-76
2023/05/18 13:14:00;;;;;;;;;;;27.00;72.70;;;;;;5089202;28;19918;-77
2023/05/18 13:16:27;;;;;;;;;;;27.00;72.50;;;;;;5090252;28;19955;-75
2023/05/18 13:18:59;;;;;;;;;;;26.80;72.20;;;;;;5087624;28;19915;-73
2023/05/18 13:21:25;;;;;;;;;;;26.60;71.90;;;;;;5089415;28;19958;-72
2023/05/18 13:23:50;;;;;;;;;;;26.30;71.70;;;;;;5089307;28;19944;-73
2023/05/18 13:26:17;;;;;;;;;;;26.00;71.60;;;;;;5089255;28;19939;-79
2023/05/18 13:28:43;;;;;;;;;;;25.70;71.70;;;;;;5090308;28;20279;-78
2023/05/18 13:31:09;;;;;;;;;;;25.50;71.90;;;;;;5089461;28;19999;-78
2023/05/18 13:33:34;;;;;;;;;;;25.30;71.80;;;;;;5088155;28;20319;-78
2023/05/18 13:36:00;;;;;;;;;;;25.20;71.60;;;;;;5089869;28;19973;-78
2023/05/18 13:38:25;;;;;;;;;;;25.10;71.80;;;;;;5089667;28;19969;-78
2023/05/18 13:40:51;;;;;;;;;;;25.10;71.90;;;;;;5089877;28;19908;-79
2023/05/18 13:43:17;;;;;;;;;;;25.20;72.00;;;;;;5089218;28;19969;-79
2023/05/18 13:45:42;;;;;;;;;;;25.20;71.70;;;;;;5089569;28;19919;-78
2023/05/18 13:48:08;;;;;;;;;;;25.20;71.60;;;;;;5089142;28;20214;-78
2023/05/18 13:50:34;;;;;;;;;;;25.10;71.40;;;;;;5089313;28;19936;-78
2023/05/18 13:53:00;;;;;;;;;;;25.10;71.30;;;;;;5088891;28;20288;-79
2023/05/18 13:55:25;;;;;;;;;;;25.00;71.30;;;;;;5088201;28;19920;-78
2023/05/18 13:57:51;;;;;;;;;;;25.00;71.60;;;;;;5088612;28;20288;-77
2023/05/18 14:00:19;;;;;;;;;;;25.10;71.60;;;;;;5087532;28;19992;-77
2023/05/18 14:02:45;;;;;;;;;;;25.10;71.40;;;;;;5088777;28;19959;-77
2023/05/18 14:05:11;;;;;;;;;;;25.00;71.60;;;;;;5088972;28;20359;-77
2023/05/18 14:07:37;;;;;;;;;;;25.00;71.80;;;;;;5087285;28;19955;-77
2023/05/18 14:10:04;;;;;;;;;;;25.10;71.80;;;;;;5088063;28;19932;-78
2023/05/18 14:12:29;;;;;;;;;;;25.10;71.80;;;;;;5088471;28;19946;-78
2023/05/18 14:14:55;;;;;;;;;;;25.20;71.60;;;;;;5088317;28;20033;-76